Terminal Aerodrome Forecast
Issued by NWS Duluth, MN

Home | Current Version | Previous Version | Text Only | Print | Product List | Glossary On
Versions: 1 2 3 4 5 6 7 8 9 10 11 12 13 14 15 16 17 18 19 20 21 22 23 24 25 26 27 28 29 30 31 32 33
000
FTUS43 KDLH 102325
TAFDLH
TAF
KDLH 102325Z 1100/1124 VRB03KT P6SM BKN020
     FM110400 VRB03KT P6SM VCSH BKN025
      TEMPO 1106/1108 1 1/2SM -SN OVC015
     FM110800 17005KT 3/4SM -SHSN OVC015
     FM111000 VRB04KT 1SM -SN OVC008
     FM111400 36004KT P6SM VCSH OVC010
     FM111800 34012G22KT P6SM BKN020
     FM112100 33015G23KT P6SM BKN035=

USA.gov is the U.S. government's official web portal to all federal, state and local government web resources and services.